Storm Events Database

Event Details

Event Thunderstorm Wind
Magnitude 50 kts.
State MISSISSIPPI
County/Area CARROLL
WFO JAN
Begin Date 01/08/2008 16:43:00 CST-6
Begin Range 2
Begin Azimuth SSW
Begin Location CARROLLTON
Begin Lat/Lon 33.48/-89.94
End Date 01/08/2008 16:43:00 CST-6
Deaths Direct/Indirect 0/0 (fatality details below, when available...)
Injuries Direct/Indirect 0/0
Property Damage 0.00K
Crop Damage 0.00K
Episode Narrative A well developed storm system and strong upper level trough pushed through the central sections of the country. A strong surface low developed and lifted into the Great Lakes region and drug a cold front through the south. Ahead of the front, warm and humid conditions moved in and clashed with the eastward moving upper trough. Scattered severe thunderstorms developed during the afternoon and evening with a squall line affecting the northern sections of the area. The south half saw a few supercell thunderstorms in advance of the developing line of storms. The storm system produced a mix of large hail, damaging winds, and a couple of tornadoes as it moved across the region.
Event Narrative A couple of trees were blown down off Highway 17 South.


All events for this episode:

Location County/Zone St. Date Time T.Z. Type Mag Dth Inj PrD CrD
Totals: 0 1 686.00K 200.00K
LAMONT BOLIVAR CO. MS 01/08/2008 14:56 CST-6 Thunderstorm Wind 50 kts. EG 0 0 110.00K 0.00K
CHURCH HILL JEFFERSON CO. MS 01/08/2008 15:30 CST-6 Tornado EF0 0 0 0.00K 0.00K
CHURCH HILL JEFFERSON CO. MS 01/08/2008 15:35 CST-6 Hail 1.00 in. 0 0 0.00K 0.00K
DODDSVILLE SUNFLOWER CO. MS 01/08/2008 15:43 CST-6 Thunderstorm Wind 57 kts. EG 0 0 12.00K 0.00K
FAYETTE JEFFERSON CO. MS 01/08/2008 15:47 CST-6 Thunderstorm Wind 57 kts. EG 0 0 5.00K 0.00K
MOORHEAD SUNFLOWER CO. MS 01/08/2008 15:50 CST-6 Thunderstorm Wind 55 kts. EG 0 0 25.00K 0.00K
SCHLATER LEFLORE CO. MS 01/08/2008 15:57 CST-6 Hail 0.75 in. 0 0 0.00K 0.00K
SCHLATER LEFLORE CO. MS 01/08/2008 16:03 CST-6 Thunderstorm Wind 55 kts. EG 0 0 40.00K 0.00K
DUNCANS CROSSING GRENADA CO. MS 01/08/2008 16:26 CST-6 Thunderstorm Wind 50 kts. EG 0 0 0.00K 0.00K
CARROLLTON CARROLL CO. MS 01/08/2008 16:43 CST-6 Thunderstorm Wind 50 kts. EG 0 0 0.00K 0.00K
DUCK HILL MONTGOMERY CO. MS 01/08/2008 16:47 CST-6 Hail 0.75 in. 0 0 0.00K 0.00K
CADARETTA WEBSTER CO. MS 01/08/2008 17:09 CST-6 Hail 1.00 in. 0 0 0.00K 0.00K
BELLEFONTAINE WEBSTER CO. MS 01/08/2008 17:20 CST-6 Thunderstorm Wind 55 kts. EG 0 0 0.00K 0.00K
WALTHALL WEBSTER CO. MS 01/08/2008 17:30 CST-6 Thunderstorm Wind 55 kts. EG 0 0 10.00K 0.00K
HARRISVILLE SIMPSON CO. MS 01/08/2008 17:37 CST-6 Tornado EF1 0 0 400.00K 200.00K
BRAXTON SIMPSON CO. MS 01/08/2008 17:44 CST-6 Hail 0.75 in. 0 0 0.00K 0.00K
PHEBA CLAY CO. MS 01/08/2008 17:46 CST-6 Hail 1.00 in. 0 0 0.00K 0.00K
PINEY WOODS RANKIN CO. MS 01/08/2008 17:50 CST-6 Hail 0.75 in. 0 0 0.00K 0.00K
WEST LINCOLN LINCOLN CO. MS 01/08/2008 18:00 CST-6 Thunderstorm Wind 43 kts. EG 0 0 40.00K 0.00K
PUCKETT RANKIN CO. MS 01/08/2008 18:11 CST-6 Tornado EF0 0 0 12.00K 0.00K
THOMASTOWN LEAKE CO. MS 01/08/2008 18:13 CST-6 Hail 0.75 in. 0 0 0.00K 0.00K
GUNN SMITH CO. MS 01/08/2008 18:13 CST-6 Hail 0.75 in. 0 0 0.00K 0.00K
DANIEL SMITH CO. MS 01/08/2008 18:20 CST-6 Thunderstorm Wind 55 kts. EG 0 0 20.00K 0.00K
WEST PT CLAY CO. MS 01/08/2008 18:20 CST-6 Thunderstorm Wind 50 kts. EG 0 0 10.00K 0.00K
NORFIELD LINCOLN CO. MS 01/08/2008 18:25 CST-6 Lightning 0 1 0.00K 0.00K
(CBM)COLUMBUS AFB LOWNDES CO. MS 01/08/2008 18:31 CST-6 Hail 1.00 in. 0 0 0.00K 0.00K
TRAXLER SMITH CO. MS 01/08/2008 18:36 CST-6 Thunderstorm Wind 53 kts. EG 0 0 0.00K 0.00K
INTERSTATE CITY LOWNDES CO. MS 01/08/2008 18:40 CST-6 Thunderstorm Wind 50 kts. EG 0 0 0.00K 0.00K
CALEDONIA LOWNDES CO. MS 01/08/2008 18:42 CST-6 Thunderstorm Wind 50 kts. EG 0 0 0.00K 0.00K
MARTINVILLE SIMPSON CO. MS 01/08/2008 19:45 CST-6 Thunderstorm Wind 57 kts. EG 0 0 2.00K 0.00K
KELLIS STORE KEMPER CO. MS 01/08/2008 19:50 CST-6 Hail 0.88 in. 0 0 0.00K 0.00K
RALEIGH SMITH CO. MS 01/08/2008 19:58 CST-6 Hail 0.75 in. 0 0 0.00K 0.00K
PURVIS LAMAR CO. MS 01/08/2008 20:49 CST-6 Hail 0.75 in. 0 0 0.00K 0.00K
Totals: 0 1 686.00K 200.00K